createdAt,value
2018-12-01T00:00:31.339Z,6.47
2018-12-01T00:03:00.096Z,6.47
2018-12-01T00:05:28.701Z,6.50
2018-12-01T00:07:57.519Z,6.51
2018-12-01T00:10:26.139Z,6.51
2018-12-01T00:12:54.631Z,6.54
2018-12-01T00:15:27.459Z,6.55
2018-12-01T00:17:56.648Z,6.59
2018-12-01T00:20:27.193Z,6.61
2018-12-01T00:22:56.462Z,6.63
2018-12-01T00:25:25.585Z,6.63
2018-12-01T00:27:54.045Z,6.65
2018-12-01T00:30:24.070Z,6.66
2018-12-01T00:32:53.075Z,6.68
2018-12-01T00:35:21.558Z,6.74
2018-12-01T00:37:50.164Z,6.74
2018-12-01T00:40:19.512Z,6.73
2018-12-01T00:42:48.094Z,6.75
2018-12-01T00:45:17.708Z,6.76
2018-12-01T00:47:47.949Z,6.81
2018-12-01T00:50:22.256Z,6.85
2018-12-01T00:52:51.487Z,6.85
2018-12-01T00:55:20.602Z,6.83
2018-12-01T00:57:49.038Z,6.85
2018-12-01T01:00:20.998Z,6.84
2018-12-01T01:02:52.714Z,6.85
2018-12-01T01:05:22.340Z,6.85
2018-12-01T01:07:50.874Z,6.84
2018-12-01T01:10:20.102Z,6.87
2018-12-01T01:12:48.771Z,6.88
2018-12-01T01:15:17.239Z,6.85
2018-12-01T01:17:45.782Z,6.89
2018-12-01T01:20:17.140Z,6.87
2018-12-01T01:22:46.526Z,6.90
2018-12-01T01:25:16.130Z,6.89
2018-12-01T01:27:45.164Z,6.90
2018-12-01T01:30:21.091Z,6.88
2018-12-01T01:32:50.411Z,6.89
2018-12-01T01:35:18.991Z,6.89
2018-12-01T01:37:47.622Z,6.87
2018-12-01T01:40:17.902Z,6.90
2018-12-01T01:42:46.464Z,6.91
2018-12-01T01:45:17.759Z,6.93
2018-12-01T01:47:46.421Z,6.91
2018-12-01T01:50:17.196Z,6.98
2018-12-01T01:52:45.741Z,7.00
2018-12-01T01:55:14.870Z,7.00
2018-12-01T01:57:43.391Z,7.03
2018-12-01T02:00:17.974Z,7.02
2018-12-01T02:02:49.541Z,7.06
2018-12-01T02:05:19.168Z,7.06
2018-12-01T02:07:47.782Z,7.09
2018-12-01T02:10:17.181Z,7.05
2018-12-01T02:12:46.222Z,7.06
2018-12-01T02:15:14.936Z,7.05
2018-12-01T02:17:43.484Z,7.07
2018-12-01T02:20:16.011Z,7.06
2018-12-01T02:22:44.707Z,7.06
2018-12-01T02:25:14.969Z,7.08
2018-12-01T02:27:44.436Z,7.05
2018-12-01T02:30:16.592Z,7.02
2018-12-01T02:32:45.084Z,7.04
2018-12-01T02:35:15.602Z,7.03
2018-12-01T02:37:44.132Z,7.04
2018-12-01T02:40:13.512Z,6.99
2018-12-01T02:42:43.136Z,6.99
2018-12-01T02:45:22.937Z,7.02
2018-12-01T02:47:51.832Z,7.00
2018-12-01T02:50:26.241Z,7.01
2018-12-01T02:52:56.649Z,7.00
2018-12-01T02:55:25.134Z,7.02
2018-12-01T02:57:53.586Z,7.03
2018-12-01T03:00:23.006Z,7.04
2018-12-01T03:02:51.490Z,7.05
2018-12-01T03:05:19.920Z,7.06
2018-12-01T03:07:48.477Z,7.06
2018-12-01T03:10:19.532Z,7.02
2018-12-01T03:12:48.565Z,7.06
2018-12-01T03:15:19.074Z,7.05
2018-12-01T03:17:48.265Z,6.93
2018-12-01T03:20:18.309Z,6.96
2018-12-01T03:22:46.791Z,6.87
2018-12-01T03:25:18.476Z,6.87
2018-12-01T03:27:48.128Z,6.79
2018-12-01T03:30:20.192Z,6.73
2018-12-01T03:32:49.579Z,6.69
2018-12-01T03:35:18.555Z,6.59
2018-12-01T03:37:48.016Z,6.60
2018-12-01T03:40:17.127Z,6.59
2018-12-01T03:42:46.066Z,6.57
2018-12-01T03:45:16.436Z,6.50
2018-12-01T03:47:46.477Z,6.46
2018-12-01T03:50:21.497Z,6.42
2018-12-01T03:52:51.201Z,6.42
2018-12-01T03:55:25.063Z,6.40
2018-12-01T03:57:53.448Z,6.35
2018-12-01T04:00:37.185Z,6.28
2018-12-01T04:03:06.909Z,6.26
2018-12-01T04:05:35.341Z,6.22
2018-12-01T04:08:03.688Z,6.22
2018-12-01T04:10:32.170Z,6.17
2018-12-01T04:13:00.753Z,6.17
2018-12-01T04:15:29.402Z,6.22
2018-12-01T04:17:57.864Z,6.23
2018-12-01T04:20:26.338Z,6.27
2018-12-01T04:22:54.720Z,6.25
2018-12-01T04:25:23.204Z,6.27
2018-12-01T04:27:51.738Z,6.26
2018-12-01T04:30:22.302Z,6.21
2018-12-01T04:32:51.513Z,6.19
2018-12-01T04:35:21.764Z,6.16
2018-12-01T04:37:53.032Z,6.17
2018-12-01T04:40:21.616Z,6.17
2018-12-01T04:42:50.165Z,6.17
2018-12-01T04:45:18.867Z,6.17
2018-12-01T04:47:47.339Z,6.16
2018-12-01T04:50:16.725Z,6.18
2018-12-01T04:52:45.963Z,6.17
2018-12-01T04:55:15.646Z,6.17
2018-12-01T04:57:44.700Z,6.17
2018-12-01T05:00:17.105Z,6.19
2018-12-01T05:02:45.554Z,6.21
2018-12-01T05:05:16.101Z,6.23
2018-12-01T05:07:44.495Z,6.24
2018-12-01T05:10:15.015Z,6.25
2018-12-01T05:12:43.921Z,6.26
2018-12-01T05:15:16.356Z,6.28
2018-12-01T05:17:45.349Z,6.30
2018-12-01T05:20:18.722Z,6.33
2018-12-01T05:22:47.237Z,6.36
2018-12-01T05:25:16.613Z,6.38
2018-12-01T05:27:45.027Z,6.39
2018-12-01T05:30:13.395Z,6.42
2018-12-01T05:32:41.773Z,6.48
2018-12-01T05:35:11.914Z,6.55
2018-12-01T05:37:40.361Z,6.65
2018-12-01T05:40:10.372Z,6.72
2018-12-01T05:42:38.937Z,6.76
2018-12-01T05:45:10.619Z,6.78
2018-12-01T05:47:39.010Z,6.83
2018-12-01T05:50:08.507Z,6.84
2018-12-01T05:52:37.050Z,6.88
2018-12-01T05:55:07.450Z,6.90
2018-12-01T05:57:42.577Z,6.91
2018-12-01T06:00:13.762Z,6.95
2018-12-01T06:02:48.859Z,6.95
2018-12-01T06:05:17.389Z,6.96
2018-12-01T06:07:49.878Z,7.00
2018-12-01T06:10:22.234Z,6.98
2018-12-01T06:13:07.338Z,6.99
2018-12-01T06:15:35.880Z,6.94
2018-12-01T06:18:07.265Z,6.93
2018-12-01T06:20:35.735Z,6.85
2018-12-01T06:23:04.143Z,6.82
2018-12-01T06:25:33.515Z,6.77
2018-12-01T06:28:02.241Z,6.76
2018-12-01T06:30:30.798Z,6.70
2018-12-01T06:33:00.865Z,6.71
2018-12-01T06:35:32.104Z,6.67
2018-12-01T06:38:00.584Z,6.69
2018-12-01T06:40:29.201Z,6.63
2018-12-01T06:42:57.688Z,6.67
2018-12-01T06:45:31.288Z,6.68
2018-12-01T06:48:02.488Z,6.68
2018-12-01T06:50:31.125Z,6.65
2018-12-01T06:53:00.328Z,6.64
2018-12-01T06:55:28.935Z,6.60
2018-12-01T06:57:57.417Z,6.58
2018-12-01T07:00:27.837Z,6.54
2018-12-01T07:02:57.090Z,6.51
2018-12-01T07:05:26.115Z,6.51
2018-12-01T07:07:54.943Z,6.48
2018-12-01T07:10:24.847Z,6.46
2018-12-01T07:12:55.006Z,6.44
2018-12-01T07:15:25.299Z,6.44
2018-12-01T07:17:53.727Z,6.43
2018-12-01T07:20:22.246Z,6.37
2018-12-01T07:22:51.772Z,6.43
2018-12-01T07:25:20.801Z,6.45
2018-12-01T07:27:49.284Z,6.41
2018-12-01T07:30:17.748Z,6.37
2018-12-01T07:32:47.030Z,6.42
2018-12-01T07:35:15.467Z,6.43
2018-12-01T07:37:43.907Z,6.44
2018-12-01T07:40:21.772Z,6.50
2018-12-01T07:42:50.301Z,6.59
2018-12-01T07:45:19.312Z,6.70
2018-12-01T07:47:47.894Z,6.90
2018-12-01T07:50:17.924Z,7.02
2018-12-01T07:52:49.076Z,7.00
2018-12-01T07:55:17.974Z,7.01
2018-12-01T07:57:46.980Z,7.09
2018-12-01T08:00:17.010Z,7.14
2018-12-01T08:02:49.027Z,7.26
2018-12-01T08:05:17.484Z,7.26
2018-12-01T08:07:52.458Z,7.28
2018-12-01T08:10:27.263Z,7.28
2018-12-01T08:12:55.830Z,7.43
2018-12-01T08:15:25.234Z,7.49
2018-12-01T08:17:53.597Z,7.54
2018-12-01T08:20:22.009Z,7.60
2018-12-01T08:22:51.085Z,7.61
2018-12-01T08:25:20.484Z,7.73
2018-12-01T08:27:53.321Z,7.74
2018-12-01T08:30:26.973Z,7.83
2018-12-01T08:32:55.351Z,7.92
2018-12-01T08:35:24.391Z,8.02
2018-12-01T08:37:53.360Z,8.04
2018-12-01T08:40:23.315Z,8.11
2018-12-01T08:42:52.695Z,8.10
2018-12-01T08:45:21.132Z,8.16
2018-12-01T08:47:49.953Z,8.14
2018-12-01T08:50:19.769Z,8.13
2018-12-01T08:52:48.290Z,8.17
2018-12-01T08:55:18.783Z,8.18
2018-12-01T08:57:47.365Z,8.05
2018-12-01T09:00:18.142Z,7.98
2018-12-01T09:02:48.116Z,8.04
2018-12-01T09:05:16.578Z,8.04
2018-12-01T09:07:45.696Z,8.06
2018-12-01T09:10:14.132Z,8.07
2018-12-01T09:12:42.550Z,8.07
2018-12-01T09:15:13.109Z,8.04
2018-12-01T09:17:41.766Z,8.00
2018-12-01T09:20:11.604Z,8.03
2018-12-01T09:22:41.505Z,8.10
2018-12-01T09:25:12.227Z,8.06
2018-12-01T09:27:41.255Z,8.10
2018-12-01T09:30:19.652Z,8.41
2018-12-01T09:32:48.247Z,8.51
2018-12-01T09:35:16.674Z,8.85
2018-12-01T09:37:45.114Z,9.13
2018-12-01T09:40:15.795Z,9.51
2018-12-01T09:42:44.438Z,9.61
2018-12-01T09:45:14.166Z,9.34
2018-12-01T09:47:44.664Z,9.21
2018-12-01T09:50:15.488Z,9.07
2018-12-01T09:52:45.411Z,8.84
2018-12-01T09:55:15.909Z,8.70
2018-12-01T09:57:45.537Z,8.73
2018-12-01T10:00:18.055Z,8.89
2018-12-01T10:02:47.228Z,9.09
2018-12-01T10:05:17.691Z,9.14
2018-12-01T10:07:46.476Z,9.21
2018-12-01T10:10:16.143Z,9.20
2018-12-01T10:12:45.177Z,9.17
2018-12-01T10:15:19.840Z,9.32
2018-12-01T10:17:48.346Z,9.39
2018-12-01T10:20:18.244Z,9.44
2018-12-01T10:22:46.696Z,9.56
2018-12-01T10:25:16.588Z,9.68
2018-12-01T10:27:45.752Z,9.76
2018-12-01T10:30:17.718Z,9.68
2018-12-01T10:32:46.325Z,9.72
2018-12-01T10:35:19.759Z,9.71
2018-12-01T10:37:51.470Z,9.75
2018-12-01T10:40:19.989Z,9.70
2018-12-01T10:42:48.448Z,9.66
2018-12-01T10:45:18.042Z,9.58
2018-12-01T10:47:46.905Z,9.67
2018-12-01T10:50:16.324Z,9.70
2018-12-01T10:52:45.297Z,9.78
2018-12-01T10:55:24.237Z,9.85
2018-12-01T10:57:53.856Z,9.92
2018-12-01T11:00:27.542Z,9.70
2018-12-01T11:03:01.235Z,9.62
2018-12-01T11:05:29.855Z,9.60
2018-12-01T11:07:58.281Z,9.55
2018-12-01T11:10:26.727Z,9.50
2018-12-01T11:12:56.604Z,9.53
2018-12-01T11:15:25.387Z,9.53
2018-12-01T11:17:53.829Z,9.57
2018-12-01T11:20:22.309Z,9.63
2018-12-01T11:22:51.796Z,9.75
2018-12-01T11:25:20.471Z,9.81
2018-12-01T11:27:49.015Z,9.81
2018-12-01T11:30:19.282Z,9.91
2018-12-01T11:32:48.159Z,9.93
2018-12-01T11:35:16.698Z,9.92
2018-12-01T11:37:45.620Z,9.98
2018-12-01T11:40:16.340Z,9.99
2018-12-01T11:42:45.023Z,9.85
2018-12-01T11:45:14.690Z,9.86
2018-12-01T11:47:43.212Z,9.82
2018-12-01T11:50:16.468Z,9.81
2018-12-01T11:52:45.635Z,9.69
2018-12-01T11:55:15.443Z,9.64
2018-12-01T11:57:43.979Z,9.60
2018-12-01T12:00:13.756Z,9.67
2018-12-01T12:02:42.198Z,9.66
2018-12-01T12:05:11.752Z,9.75
2018-12-01T12:07:51.476Z,9.77
2018-12-01T12:10:20.115Z,9.78
2018-12-01T12:12:48.777Z,9.76
2018-12-01T12:15:17.348Z,9.86
2018-12-01T12:17:53.706Z,9.93
2018-12-01T12:20:22.282Z,9.94
2018-12-01T12:22:50.892Z,9.97
2018-12-01T12:25:19.269Z,9.86
2018-12-01T12:27:47.749Z,9.82
2018-12-01T12:30:17.456Z,9.76
2018-12-01T12:32:46.299Z,9.86
2018-12-01T12:35:16.658Z,9.82
2018-12-01T12:37:45.101Z,9.80
2018-12-01T12:40:15.859Z,9.78
2018-12-01T12:42:44.245Z,9.74
2018-12-01T12:45:13.548Z,9.71
2018-12-01T12:47:42.272Z,9.73
2018-12-01T12:50:11.947Z,9.73
2018-12-01T12:52:40.396Z,9.70
2018-12-01T12:55:12.293Z,9.75
2018-12-01T12:57:40.717Z,9.72
2018-12-01T13:00:13.388Z,9.71
2018-12-01T13:02:42.697Z,9.60
2018-12-01T13:05:17.342Z,9.60
2018-12-01T13:07:45.880Z,9.60
2018-12-01T13:10:17.325Z,9.60
2018-12-01T13:12:46.085Z,9.47
2018-12-01T13:15:15.467Z,9.55
2018-12-01T13:17:43.905Z,9.52
2018-12-01T13:20:13.859Z,9.53
2018-12-01T13:22:42.351Z,9.53
2018-12-01T13:25:12.993Z,9.51
2018-12-01T13:27:47.187Z,9.48
2018-12-01T13:30:17.920Z,9.43
2018-12-01T13:32:46.417Z,9.42
2018-12-01T13:35:14.913Z,9.38
2018-12-01T13:37:43.381Z,9.34
2018-12-01T13:40:13.972Z,9.29
2018-12-01T13:42:43.081Z,9.21
2018-12-01T13:45:17.177Z,9.08
2018-12-01T13:47:46.454Z,9.12
2018-12-01T13:50:16.665Z,8.98
2018-12-01T13:52:49.254Z,9.01
2018-12-01T13:55:17.697Z,8.96
2018-12-01T13:57:47.587Z,8.96
2018-12-01T14:00:17.335Z,8.96
2018-12-01T14:02:45.816Z,8.93
2018-12-01T14:05:14.390Z,8.94
2018-12-01T14:07:42.849Z,8.95
2018-12-01T14:10:15.077Z,8.94
2018-12-01T14:12:44.280Z,8.89
2018-12-01T14:15:17.910Z,8.78
2018-12-01T14:17:46.621Z,8.78
2018-12-01T14:20:15.792Z,8.80
2018-12-01T14:22:45.119Z,8.77
2018-12-01T14:25:14.448Z,8.75
2018-12-01T14:27:44.445Z,8.69
2018-12-01T14:30:14.693Z,8.65
2018-12-01T14:32:43.143Z,8.61
2018-12-01T14:35:14.084Z,8.55
2018-12-01T14:37:42.997Z,8.47
2018-12-01T14:40:12.812Z,8.47
2018-12-01T14:42:41.614Z,8.36
2018-12-01T14:45:11.590Z,8.41
2018-12-01T14:47:40.121Z,8.34
2018-12-01T14:50:09.973Z,8.21
2018-12-01T14:52:38.507Z,8.21
2018-12-01T14:55:09.533Z,8.12
2018-12-01T14:57:38.068Z,8.13
2018-12-01T15:00:24.737Z,8.17
2018-12-01T15:02:54.368Z,8.08
2018-12-01T15:05:23.461Z,8.11
2018-12-01T15:07:51.941Z,8.03
2018-12-01T15:10:24.837Z,8.03
2018-12-01T15:12:53.409Z,7.86
2018-12-01T15:15:23.158Z,7.79
2018-12-01T15:17:51.533Z,7.78
2018-12-01T15:20:20.877Z,7.71
2018-12-01T15:22:50.461Z,7.69
2018-12-01T15:25:22.129Z,7.65
2018-12-01T15:27:50.706Z,7.58
2018-12-01T15:30:23.061Z,7.54
2018-12-01T15:32:55.162Z,7.51
2018-12-01T15:35:25.264Z,7.49
2018-12-01T15:37:58.383Z,7.47
2018-12-01T15:40:30.419Z,7.48
2018-12-01T15:43:02.710Z,7.44
2018-12-01T15:45:31.282Z,7.40
2018-12-01T15:48:01.213Z,7.33
2018-12-01T15:50:30.222Z,7.33
2018-12-01T15:53:00.378Z,7.24
2018-12-01T15:55:31.048Z,7.28
2018-12-01T15:58:00.187Z,7.24
2018-12-01T16:00:28.857Z,7.22
2018-12-01T16:02:57.861Z,7.21
2018-12-01T16:05:26.256Z,7.22
2018-12-01T16:07:56.835Z,7.21
2018-12-01T16:10:25.554Z,7.22
2018-12-01T16:12:57.486Z,7.17
2018-12-01T16:15:31.406Z,7.12
2018-12-01T16:17:59.927Z,7.02
2018-12-01T16:20:29.279Z,7.05
2018-12-01T16:22:57.724Z,7.01
2018-12-01T16:25:26.458Z,7.01
2018-12-01T16:27:54.902Z,7.00
2018-12-01T16:30:31.442Z,6.95
2018-12-01T16:33:01.436Z,6.95
2018-12-01T16:35:29.889Z,6.95
2018-12-01T16:37:58.386Z,6.91
2018-12-01T16:40:35.615Z,6.94
2018-12-01T16:43:06.236Z,7.01
2018-12-01T16:45:34.735Z,7.03
2018-12-01T16:48:03.201Z,7.03
2018-12-01T16:50:32.137Z,7.05
2018-12-01T16:53:00.643Z,7.08
2018-12-01T16:55:29.102Z,7.09
2018-12-01T16:57:57.720Z,7.09
2018-12-01T17:00:26.980Z,7.07
2018-12-01T17:02:56.751Z,7.08
2018-12-01T17:05:26.919Z,7.14
2018-12-01T17:07:55.432Z,7.14
2018-12-01T17:10:24.071Z,7.18
2018-12-01T17:12:53.849Z,7.19
2018-12-01T17:15:22.759Z,7.17
2018-12-01T17:17:51.292Z,7.26
2018-12-01T17:20:20.158Z,7.24
2018-12-01T17:22:51.973Z,7.33
2018-12-01T17:25:20.410Z,7.35
2018-12-01T17:27:50.066Z,7.34
2018-12-01T17:30:21.658Z,7.34
2018-12-01T17:32:50.406Z,7.38
2018-12-01T17:35:20.157Z,7.37
2018-12-01T17:37:50.920Z,7.35
2018-12-01T17:40:26.194Z,7.30
2018-12-01T17:42:56.302Z,7.34
2018-12-01T17:45:24.764Z,7.32
2018-12-01T17:47:53.867Z,7.27
2018-12-01T17:50:22.342Z,7.26
2018-12-01T17:52:54.215Z,7.31
2018-12-01T17:55:23.415Z,7.28
2018-12-01T17:57:52.476Z,7.30
2018-12-01T18:00:22.410Z,7.24
2018-12-01T18:02:52.124Z,7.22
2018-12-01T18:05:23.514Z,7.28
2018-12-01T18:07:52.068Z,7.25
2018-12-01T18:10:20.449Z,7.25
2018-12-01T18:12:49.008Z,7.32
2018-12-01T18:15:18.496Z,7.37
2018-12-01T18:17:47.013Z,7.36
2018-12-01T18:20:17.824Z,7.38
2018-12-01T18:22:48.886Z,7.42
2018-12-01T18:25:17.305Z,7.43
2018-12-01T18:27:47.218Z,7.52
2018-12-01T18:30:22.025Z,7.53
2018-12-01T18:32:50.774Z,7.63
2018-12-01T18:35:19.254Z,7.67
2018-12-01T18:37:47.706Z,7.70
2018-12-01T18:40:19.300Z,7.74
2018-12-01T18:42:47.768Z,7.75
2018-12-01T18:45:17.591Z,7.72
2018-12-01T18:47:46.088Z,7.76
2018-12-01T18:50:17.543Z,7.75
2018-12-01T18:52:51.318Z,7.77
2018-12-01T18:55:19.755Z,7.78
2018-12-01T18:57:48.223Z,7.76
2018-12-01T19:00:22.547Z,7.77
2018-12-01T19:02:50.951Z,7.77
2018-12-01T19:05:19.434Z,7.79
2018-12-01T19:07:47.885Z,7.78
2018-12-01T19:10:18.173Z,7.73
2018-12-01T19:12:48.458Z,7.72
2018-12-01T19:15:17.917Z,7.66
2018-12-01T19:17:47.792Z,7.69
2018-12-01T19:20:17.713Z,7.61
2018-12-01T19:22:47.291Z,7.64
2018-12-01T19:25:19.736Z,7.63
2018-12-01T19:27:48.691Z,7.61
2018-12-01T19:30:18.336Z,7.61
2018-12-01T19:32:49.432Z,7.57
2018-12-01T19:35:19.528Z,7.57
2018-12-01T19:37:51.212Z,7.56
2018-12-01T19:40:28.591Z,7.55
2018-12-01T19:42:54.252Z,7.57
2018-12-01T19:45:22.658Z,7.54
2018-12-01T19:47:57.977Z,7.56
2018-12-01T19:50:35.542Z,7.56
2018-12-01T19:53:04.295Z,7.55
2018-12-01T19:58:11.994Z,7.52
2018-12-01T20:00:42.557Z,7.50
2018-12-01T20:03:15.723Z,7.44
2018-12-01T20:05:44.231Z,7.42
2018-12-01T20:08:14.368Z,7.40
2018-12-01T20:10:45.000Z,7.39
2018-12-01T20:13:45.345Z,7.38
2018-12-01T20:16:35.777Z,7.38
2018-12-01T20:19:06.192Z,7.35
2018-12-01T20:21:34.770Z,7.35
2018-12-01T20:24:03.563Z,7.34
2018-12-01T20:26:33.220Z,7.32
2018-12-01T20:29:03.132Z,7.35
2018-12-01T20:31:32.386Z,7.41
2018-12-01T20:34:02.200Z,7.40
2018-12-01T20:36:37.655Z,7.43
2018-12-01T20:39:16.119Z,7.43
2018-12-01T20:41:44.991Z,7.44
2018-12-01T20:44:13.609Z,7.49
2018-12-01T20:46:43.585Z,7.51
2018-12-01T20:49:12.850Z,7.52
2018-12-01T20:51:42.118Z,7.53
2018-12-01T20:54:20.969Z,7.59
2018-12-01T20:56:49.385Z,7.69
2018-12-01T20:59:18.596Z,7.68
2018-12-01T21:01:47.034Z,7.63
2018-12-01T21:04:15.456Z,7.60
2018-12-01T21:06:43.894Z,7.59
2018-12-01T21:09:14.241Z,7.56
2018-12-01T21:11:42.841Z,7.55
2018-12-01T21:14:11.529Z,7.53
2018-12-01T21:16:41.107Z,7.55
2018-12-01T21:19:10.481Z,7.57
2018-12-01T21:21:38.968Z,7.57
2018-12-01T21:24:08.387Z,7.54
2018-12-01T21:26:37.643Z,7.54
2018-12-01T21:29:06.968Z,7.50
2018-12-01T21:31:36.211Z,7.55
2018-12-01T21:34:05.310Z,7.57
2018-12-01T21:36:33.908Z,7.63
2018-12-01T21:39:02.696Z,7.64
2018-12-01T21:41:31.256Z,7.64
2018-12-01T21:43:59.785Z,7.76
2018-12-01T21:46:28.322Z,7.86
2018-12-01T21:48:56.940Z,7.88
2018-12-01T21:51:25.412Z,7.98
2018-12-01T21:53:53.971Z,8.03
2018-12-01T21:56:22.460Z,8.23
2018-12-01T21:58:51.291Z,8.25
2018-12-01T22:01:19.936Z,8.39
2018-12-01T22:03:48.711Z,8.51
2018-12-01T22:06:17.142Z,8.55
2018-12-01T22:08:45.722Z,8.71
2018-12-01T22:11:14.084Z,8.66
2018-12-01T22:13:42.530Z,8.70
2018-12-01T22:16:12.103Z,8.70
2018-12-01T22:18:42.339Z,8.73
2018-12-01T22:21:10.768Z,8.75
2018-12-01T22:23:39.260Z,8.75
2018-12-01T22:26:08.372Z,8.74
2018-12-01T22:28:36.770Z,8.73
2018-12-01T22:31:05.781Z,8.84
2018-12-01T22:33:34.663Z,8.86
2018-12-01T22:36:03.245Z,8.77
2018-12-01T22:38:31.735Z,8.73
2018-12-01T22:41:00.209Z,8.68
2018-12-01T22:43:28.690Z,8.69
2018-12-01T22:45:57.208Z,8.67
2018-12-01T22:48:26.517Z,8.65
2018-12-01T22:50:55.159Z,8.62
2018-12-01T22:53:23.597Z,8.66
2018-12-01T22:55:52.039Z,8.70
2018-12-01T22:58:21.546Z,8.71
2018-12-01T23:00:53.483Z,8.84
2018-12-01T23:03:22.359Z,8.82
2018-12-01T23:05:50.951Z,8.86
2018-12-01T23:08:21.200Z,8.85
2018-12-01T23:10:49.777Z,8.84
2018-12-01T23:13:18.307Z,8.87
2018-12-01T23:15:46.751Z,8.87
2018-12-01T23:18:16.863Z,8.86
2018-12-01T23:20:46.715Z,8.85
2018-12-01T23:23:15.187Z,8.80
2018-12-01T23:25:43.778Z,8.86
2018-12-01T23:28:12.301Z,8.85
2018-12-01T23:30:42.519Z,8.81
2018-12-01T23:33:13.305Z,8.82
2018-12-01T23:35:41.825Z,8.80
2018-12-01T23:38:10.350Z,8.82
2018-12-01T23:40:39.819Z,8.85
2018-12-01T23:43:08.441Z,8.87
2018-12-01T23:45:38.841Z,8.84
2018-12-01T23:48:07.894Z,8.81
2018-12-01T23:50:36.802Z,8.85
2018-12-01T23:53:09.316Z,8.85
2018-12-01T23:55:38.819Z,8.84
2018-12-01T23:58:07.392Z,8.82
